HLLB

Benina International Airport

Benghazi, Libya
METAR HLLB 230856Z 22012KT 6000 RA FEW020CB BKN022 BKN080 18/15 Q1014
Observed Flight Rules
Oct-23 @ 08:56 UTC (44 minutes ago) Marginal Visual Flight Rules
Wind Visibility Clouds Conditions
220° at 12 knots 6,003 meters
  • Few at 2,000' AGL
  • Broken at 2,200' AGL
  • Broken at 8,000' AGL
  • Rain
Temperatures Readings
Current 18°C / 64°F
Dewpoint 15°C / 59°F
Humidity 83%
Altimeter 29.94" Hg
Pressure 1014 hPa
Elevation 132
METAR HLLB 230856Z 22012KT 6000 RA FEW020CB BKN022 BKN080 18/15 Q1014
Observed Flight Rules
Oct-23 @ 08:56 UTC
(44 minutes ago)
MVFR
Wind Visibility
220° at 12 knots 6,003 meters
Clouds
  • Few at 2,000' AGL
  • Broken at 2,200' AGL
  • Broken at 8,000' AGL
Conditions
  • Rain
Temperature Dewpoint
18°C / 64°F 15°C / 59°F
Humidity Altimeter Pressure
83% 29.94" Hg 1014 hPa